Time;durP1;ratioP1;P1;durP2;ratioP2;P2;SDS_P1;SDS_P2;PMS_P1;PMS_P2;Temp;Humidity;BMP_temperature;BMP_pressure;BME280_temperature;BME280_humidity;BME280_pressure;Samples;Min_cycle;Max_cycle;Signal;HPM_P1;HPM_P2
2023/04/29 00:00:30;;;;;;;;;;;10.80;99.90;;;;;;5107406;28;20222;-69
2023/04/29 00:02:57;;;;;;;;;;;10.80;99.90;;;;;;5107321;28;19935;-69
2023/04/29 00:05:24;;;;;;;;;;;10.80;99.90;;;;;;5106620;28;20291;-69
2023/04/29 00:07:50;;;;;;;;;;;10.80;99.90;;;;;;5086861;28;19927;-69
2023/04/29 00:10:17;;;;;;;;;;;10.80;99.90;;;;;;5086704;28;19952;-69
2023/04/29 00:12:44;;;;;;;;;;;10.70;99.90;;;;;;5086781;28;19927;-69
2023/04/29 00:15:12;;;;;;;;;;;10.80;99.90;;;;;;5087012;28;19992;-70
2023/04/29 00:17:38;;;;;;;;;;;10.70;99.90;;;;;;5085973;28;19926;-69
2023/04/29 00:20:06;;;;;;;;;;;10.70;99.90;;;;;;5085582;28;19948;-69
2023/04/29 00:22:33;;;;;;;;;;;10.70;99.90;;;;;;5085098;28;19920;-70
2023/04/29 00:24:59;;;;;;;;;;;10.70;99.90;;;;;;5085903;28;19924;-70
2023/04/29 00:27:26;;;;;;;;;;;10.70;99.90;;;;;;5085317;28;19988;-69
2023/04/29 00:29:53;;;;;;;;;;;10.80;99.90;;;;;;5086688;28;19927;-70
2023/04/29 00:32:21;;;;;;;;;;;10.80;99.90;;;;;;5086573;28;19920;-69
2023/04/29 00:34:48;;;;;;;;;;;10.70;99.90;;;;;;5086514;28;19999;-69
2023/04/29 00:37:15;;;;;;;;;;;10.80;99.90;;;;;;5085665;28;20094;-71
2023/04/29 00:39:41;;;;;;;;;;;10.80;99.90;;;;;;5086416;28;20046;-70
2023/04/29 00:42:09;;;;;;;;;;;10.80;99.90;;;;;;5086058;28;20291;-70
2023/04/29 00:44:36;;;;;;;;;;;10.80;99.90;;;;;;5086343;28;19921;-68
2023/04/29 00:47:03;;;;;;;;;;;10.80;99.90;;;;;;5085729;28;20159;-68
2023/04/29 00:49:31;;;;;;;;;;;10.70;99.90;;;;;;5086269;28;19952;-70
2023/04/29 00:51:57;;;;;;;;;;;10.70;99.90;;;;;;5085981;28;19992;-69
2023/04/29 00:54:24;;;;;;;;;;;10.80;99.90;;;;;;5086133;28;19930;-70
2023/04/29 00:56:51;;;;;;;;;;;10.80;99.90;;;;;;5085146;28;20227;-70
2023/04/29 00:59:17;;;;;;;;;;;10.70;99.90;;;;;;5086466;28;19991;-70
2023/04/29 01:01:44;;;;;;;;;;;10.70;99.90;;;;;;5086127;28;19926;-69
2023/04/29 01:04:11;;;;;;;;;;;10.70;99.90;;;;;;5086203;28;19920;-69
2023/04/29 01:06:48;;;;;;;;;;;10.60;99.90;;;;;;5085303;28;19920;-69
2023/04/29 01:09:24;;;;;;;;;;;10.60;99.90;;;;;;5084990;28;19920;-70
2023/04/29 01:11:55;;;;;;;;;;;10.60;99.90;;;;;;5085642;28;19987;-70
2023/04/29 01:14:23;;;;;;;;;;;10.70;99.90;;;;;;5083433;28;19928;-70
2023/04/29 01:16:52;;;;;;;;;;;10.60;99.90;;;;;;5085120;28;19920;-69
2023/04/29 01:19:24;;;;;;;;;;;10.60;99.90;;;;;;5085636;28;19921;-70
2023/04/29 01:21:52;;;;;;;;;;;10.70;99.90;;;;;;5085785;28;19920;-73
2023/04/29 01:24:20;;;;;;;;;;;10.70;99.90;;;;;;5085649;28;19921;-69
2023/04/29 01:26:51;;;;;;;;;;;10.70;99.90;;;;;;5085036;28;19920;-69
2023/04/29 01:29:23;;;;;;;;;;;10.70;99.90;;;;;;5082812;28;20090;-69
2023/04/29 01:31:54;;;;;;;;;;;10.70;99.90;;;;;;5085213;28;19920;-69
2023/04/29 01:34:23;;;;;;;;;;;10.70;99.90;;;;;;5085294;28;19920;-70
2023/04/29 01:36:53;;;;;;;;;;;10.70;99.90;;;;;;5084895;28;19927;-71
2023/04/29 01:39:26;;;;;;;;;;;10.70;99.90;;;;;;5084991;28;19974;-70
2023/04/29 01:41:57;;;;;;;;;;;10.60;99.90;;;;;;5085405;28;19920;-69
2023/04/29 01:44:27;;;;;;;;;;;10.70;99.90;;;;;;5085167;28;19924;-69
2023/04/29 01:46:54;;;;;;;;;;;10.70;99.90;;;;;;5084444;28;20248;-69
2023/04/29 01:49:21;;;;;;;;;;;10.70;99.90;;;;;;5085326;28;19936;-70
2023/04/29 01:51:47;;;;;;;;;;;10.70;99.90;;;;;;5085083;28;19982;-69
2023/04/29 01:54:14;;;;;;;;;;;10.70;99.90;;;;;;5087092;28;19959;-70
2023/04/29 01:56:42;;;;;;;;;;;10.60;99.90;;;;;;5104550;28;19962;-69
2023/04/29 01:59:09;;;;;;;;;;;10.60;99.90;;;;;;5105349;28;20176;-69
2023/04/29 02:01:36;;;;;;;;;;;10.70;99.90;;;;;;5105137;28;19970;-69
2023/04/29 02:04:02;;;;;;;;;;;10.70;99.90;;;;;;5089543;28;19955;-69
2023/04/29 02:06:30;;;;;;;;;;;10.80;99.90;;;;;;5083741;28;19921;-69
2023/04/29 02:08:57;;;;;;;;;;;10.80;99.90;;;;;;5084484;28;20250;-69
2023/04/29 02:11:24;;;;;;;;;;;10.60;99.90;;;;;;5084693;28;19987;-70
2023/04/29 02:13:53;;;;;;;;;;;10.70;99.90;;;;;;5084626;28;19984;-69
2023/04/29 02:16:20;;;;;;;;;;;10.60;99.90;;;;;;5104171;28;19965;-70
2023/04/29 02:18:47;;;;;;;;;;;10.60;99.90;;;;;;5104921;28;19927;-70
2023/04/29 02:21:13;;;;;;;;;;;10.60;99.90;;;;;;5104423;28;19920;-69
2023/04/29 02:23:40;;;;;;;;;;;10.60;99.90;;;;;;5104708;28;19956;-69
2023/04/29 02:26:08;;;;;;;;;;;10.60;99.90;;;;;;5104027;28;19957;-71
2023/04/29 02:28:35;;;;;;;;;;;10.70;99.90;;;;;;5083604;28;19955;-68
2023/04/29 02:31:03;;;;;;;;;;;10.60;99.90;;;;;;5084066;28;19921;-69
2023/04/29 02:33:29;;;;;;;;;;;10.60;99.90;;;;;;5084152;28;19920;-69
2023/04/29 02:35:56;;;;;;;;;;;10.60;99.90;;;;;;5083898;28;20116;-69
2023/04/29 02:38:22;;;;;;;;;;;10.60;99.90;;;;;;5083550;28;19963;-70
2023/04/29 02:40:49;;;;;;;;;;;10.50;99.90;;;;;;5084251;28;19920;-69
2023/04/29 02:43:16;;;;;;;;;;;10.50;99.90;;;;;;5083635;28;19980;-69
2023/04/29 02:45:43;;;;;;;;;;;10.50;99.90;;;;;;5083805;28;19996;-69
2023/04/29 02:48:11;;;;;;;;;;;10.50;99.90;;;;;;5083559;28;19927;-69
2023/04/29 02:50:38;;;;;;;;;;;10.50;99.90;;;;;;5083873;28;19983;-69
2023/04/29 02:53:04;;;;;;;;;;;10.40;99.90;;;;;;5083548;28;19927;-70
2023/04/29 02:55:31;;;;;;;;;;;10.40;99.90;;;;;;5083830;28;19963;-69
2023/04/29 02:57:57;;;;;;;;;;;10.40;99.90;;;;;;5083297;28;20422;-71
2023/04/29 03:00:24;;;;;;;;;;;10.40;99.90;;;;;;5083513;28;19956;-69
2023/04/29 03:02:51;;;;;;;;;;;10.50;99.90;;;;;;5083798;28;19983;-69
2023/04/29 03:05:19;;;;;;;;;;;10.60;99.90;;;;;;5083498;28;19980;-69
2023/04/29 03:07:45;;;;;;;;;;;10.60;99.90;;;;;;5083088;28;20112;-69
2023/04/29 03:10:12;;;;;;;;;;;10.50;99.90;;;;;;5083830;28;19988;-70
2023/04/29 03:12:39;;;;;;;;;;;10.50;99.90;;;;;;5083513;28;19997;-70
2023/04/29 03:15:06;;;;;;;;;;;10.50;99.90;;;;;;5080392;28;19936;-69
2023/04/29 03:17:33;;;;;;;;;;;10.50;99.90;;;;;;5083072;28;19928;-70
2023/04/29 03:20:00;;;;;;;;;;;10.50;99.90;;;;;;5083729;28;19920;-70
2023/04/29 03:22:28;;;;;;;;;;;10.40;99.90;;;;;;5083268;28;19920;-69
2023/04/29 03:24:55;;;;;;;;;;;10.40;99.90;;;;;;5083443;28;19927;-71
2023/04/29 03:27:21;;;;;;;;;;;10.30;99.90;;;;;;5082867;28;19927;-71
2023/04/29 03:29:48;;;;;;;;;;;10.30;99.90;;;;;;5081473;28;19920;-70
2023/04/29 03:32:14;;;;;;;;;;;10.30;99.90;;;;;;5083049;28;19926;-68
2023/04/29 03:34:41;;;;;;;;;;;10.30;99.90;;;;;;5083463;28;20168;-70
2023/04/29 03:37:08;;;;;;;;;;;10.30;99.90;;;;;;5082763;28;19926;-69
2023/04/29 03:39:36;;;;;;;;;;;10.30;99.90;;;;;;5083482;28;19924;-70
2023/04/29 03:42:03;;;;;;;;;;;10.20;99.90;;;;;;5083478;28;19920;-70
2023/04/29 03:44:30;;;;;;;;;;;10.30;99.90;;;;;;5083402;28;19920;-71
2023/04/29 03:46:56;;;;;;;;;;;10.30;99.90;;;;;;5082489;28;19920;-70
2023/04/29 03:49:23;;;;;;;;;;;10.30;99.90;;;;;;5083054;28;20382;-70
2023/04/29 03:51:50;;;;;;;;;;;10.30;99.90;;;;;;5083018;28;19942;-70
2023/04/29 03:54:16;;;;;;;;;;;10.30;99.90;;;;;;5083173;28;20022;-69
2023/04/29 03:56:44;;;;;;;;;;;10.30;99.90;;;;;;5082315;28;20165;-69
2023/04/29 03:59:11;;;;;;;;;;;10.30;99.90;;;;;;5083215;28;19927;-69
2023/04/29 04:01:38;;;;;;;;;;;10.30;99.90;;;;;;5083248;28;19983;-71
2023/04/29 04:04:04;;;;;;;;;;;10.30;99.90;;;;;;5082968;28;20545;-69
2023/04/29 04:06:31;;;;;;;;;;;10.30;99.90;;;;;;5082318;28;20137;-70
2023/04/29 04:08:58;;;;;;;;;;;10.30;99.90;;;;;;5083157;28;19983;-69
2023/04/29 04:11:24;;;;;;;;;;;10.30;99.90;;;;;;5083197;28;19942;-68
2023/04/29 04:13:53;;;;;;;;;;;10.30;99.90;;;;;;5083139;28;19920;-70
2023/04/29 04:16:19;;;;;;;;;;;10.30;99.90;;;;;;5082086;28;20228;-70
2023/04/29 04:18:46;;;;;;;;;;;10.30;99.90;;;;;;5083038;28;19920;-69
2023/04/29 04:21:12;;;;;;;;;;;10.30;99.90;;;;;;5082777;28;20157;-69
2023/04/29 04:23:40;;;;;;;;;;;10.20;99.90;;;;;;5082717;28;19955;-69
2023/04/29 04:26:06;;;;;;;;;;;10.20;99.90;;;;;;5081849;28;19993;-69
2023/04/29 04:28:33;;;;;;;;;;;10.20;99.90;;;;;;5081047;28;19921;-68
2023/04/29 04:31:01;;;;;;;;;;;10.30;99.90;;;;;;5082185;28;19959;-69
2023/04/29 04:33:28;;;;;;;;;;;10.30;99.90;;;;;;5082942;28;20167;-69
2023/04/29 04:35:54;;;;;;;;;;;10.30;99.90;;;;;;5082678;28;19920;-69
2023/04/29 04:38:24;;;;;;;;;;;10.30;99.90;;;;;;5082333;28;19959;-69
2023/04/29 04:40:50;;;;;;;;;;;10.30;99.90;;;;;;5082424;28;19921;-70
2023/04/29 04:43:17;;;;;;;;;;;10.30;99.90;;;;;;5100174;28;19979;-69
2023/04/29 04:45:44;;;;;;;;;;;10.30;99.90;;;;;;5106184;28;19994;-70
2023/04/29 04:48:12;;;;;;;;;;;10.40;99.90;;;;;;5106013;28;20247;-69
2023/04/29 04:50:38;;;;;;;;;;;10.40;99.90;;;;;;5106426;28;19987;-69
2023/04/29 04:53:05;;;;;;;;;;;10.40;99.90;;;;;;5106515;28;19983;-70
2023/04/29 04:55:32;;;;;;;;;;;10.40;99.90;;;;;;5106182;28;19983;-70
2023/04/29 04:57:59;;;;;;;;;;;10.50;99.90;;;;;;5106249;28;19920;-69
2023/04/29 05:00:25;;;;;;;;;;;10.50;99.90;;;;;;5106477;28;19927;-69
2023/04/29 05:02:52;;;;;;;;;;;10.50;99.90;;;;;;5105924;28;19928;-70
2023/04/29 05:05:20;;;;;;;;;;;10.60;99.90;;;;;;5105724;28;19987;-69
2023/04/29 05:07:46;;;;;;;;;;;10.60;99.90;;;;;;5090922;28;19935;-69
2023/04/29 05:10:13;;;;;;;;;;;10.60;99.90;;;;;;5086138;28;19955;-69
2023/04/29 05:12:40;;;;;;;;;;;10.70;99.90;;;;;;5085790;28;19983;-69
2023/04/29 05:15:07;;;;;;;;;;;10.70;99.90;;;;;;5085992;28;19927;-69
2023/04/29 05:17:35;;;;;;;;;;;10.70;99.90;;;;;;5084623;28;19995;-69
2023/04/29 05:20:01;;;;;;;;;;;10.80;99.90;;;;;;5091380;28;19920;-69
2023/04/29 05:22:29;;;;;;;;;;;10.80;99.90;;;;;;5099558;28;19951;-70
2023/04/29 05:25:01;;;;;;;;;;;10.90;99.90;;;;;;5105572;28;19920;-69
2023/04/29 05:27:28;;;;;;;;;;;10.90;99.90;;;;;;5103697;28;19964;-69
2023/04/29 05:29:55;;;;;;;;;;;11.10;99.90;;;;;;5105838;28;19920;-70
2023/04/29 05:32:22;;;;;;;;;;;11.10;99.90;;;;;;5105800;28;19955;-70
2023/04/29 05:34:48;;;;;;;;;;;11.20;99.90;;;;;;5105425;28;19920;-69
2023/04/29 05:37:15;;;;;;;;;;;11.30;99.90;;;;;;5085237;28;19983;-69
2023/04/29 05:39:43;;;;;;;;;;;11.40;99.90;;;;;;5085062;28;19959;-70
2023/04/29 05:42:10;;;;;;;;;;;11.40;99.90;;;;;;5089518;28;19920;-70
2023/04/29 05:44:36;;;;;;;;;;;11.50;99.90;;;;;;5125887;28;19982;-70
2023/04/29 05:47:03;;;;;;;;;;;11.60;99.90;;;;;;5124947;28;19926;-69
2023/04/29 05:49:29;;;;;;;;;;;11.60;99.90;;;;;;5125833;28;19995;-70
2023/04/29 05:51:56;;;;;;;;;;;11.60;99.90;;;;;;5125521;28;19919;-70
2023/04/29 05:54:23;;;;;;;;;;;11.70;99.90;;;;;;5125087;28;19982;-70
2023/04/29 05:56:51;;;;;;;;;;;11.60;99.90;;;;;;5124984;28;19951;-69
2023/04/29 05:59:17;;;;;;;;;;;11.70;99.90;;;;;;5125776;27;19989;-71
2023/04/29 06:01:44;;;;;;;;;;;11.70;99.90;;;;;;5125237;28;20227;-69
2023/04/29 06:04:11;;;;;;;;;;;11.80;99.90;;;;;;5125696;28;19962;-69
2023/04/29 06:06:37;;;;;;;;;;;11.80;99.90;;;;;;5124202;28;19983;-69
2023/04/29 06:09:04;;;;;;;;;;;11.90;99.90;;;;;;5125546;28;19923;-70
2023/04/29 06:11:31;;;;;;;;;;;11.90;99.90;;;;;;5125396;28;20093;-71
2023/04/29 06:13:59;;;;;;;;;;;12.00;99.90;;;;;;5125799;28;19926;-70
2023/04/29 06:16:26;;;;;;;;;;;12.10;99.90;;;;;;5114536;28;19987;-69
2023/04/29 06:18:52;;;;;;;;;;;12.10;99.90;;;;;;5102450;28;19928;-70
2023/04/29 06:21:19;;;;;;;;;;;12.10;99.90;;;;;;5104918;28;19987;-69
2023/04/29 06:23:46;;;;;;;;;;;12.10;99.90;;;;;;5104458;28;20175;-69
2023/04/29 06:26:12;;;;;;;;;;;12.20;99.90;;;;;;5103794;28;20262;-69
2023/04/29 06:28:39;;;;;;;;;;;12.20;99.90;;;;;;5101698;28;20271;-68
2023/04/29 06:31:07;;;;;;;;;;;12.30;99.90;;;;;;5104543;28;19920;-68
2023/04/29 06:33:34;;;;;;;;;;;12.30;99.90;;;;;;5084131;28;19984;-71
2023/04/29 06:36:00;;;;;;;;;;;12.40;99.90;;;;;;5084194;28;19921;-69
2023/04/29 06:38:27;;;;;;;;;;;12.40;99.90;;;;;;5083887;28;19958;-69
2023/04/29 06:40:53;;;;;;;;;;;12.40;99.90;;;;;;5084052;28;19996;-69
2023/04/29 06:43:21;;;;;;;;;;;12.40;99.90;;;;;;5083993;28;20108;-66
2023/04/29 06:45:47;;;;;;;;;;;12.40;99.90;;;;;;5083387;28;20371;-69
2023/04/29 06:48:15;;;;;;;;;;;12.50;99.90;;;;;;5104173;28;20144;-69
2023/04/29 06:50:48;;;;;;;;;;;12.40;99.90;;;;;;5124703;28;19920;-70
2023/04/29 06:53:15;;;;;;;;;;;12.40;99.90;;;;;;5124576;28;19920;-70
2023/04/29 06:55:42;;;;;;;;;;;12.40;99.90;;;;;;5103353;28;19987;-69
2023/04/29 06:58:08;;;;;;;;;;;12.40;99.90;;;;;;5103843;28;20276;-68
2023/04/29 07:00:35;;;;;;;;;;;12.40;99.90;;;;;;5104182;28;19927;-70
2023/04/29 07:03:02;;;;;;;;;;;12.40;99.90;;;;;;5103159;28;20208;-69
2023/04/29 07:05:30;;;;;;;;;;;12.40;99.90;;;;;;5086947;28;19939;-70
2023/04/29 07:07:56;;;;;;;;;;;12.40;99.90;;;;;;5082687;28;20093;-70
2023/04/29 07:10:25;;;;;;;;;;;12.40;99.90;;;;;;5090151;28;19926;-70
2023/04/29 07:12:54;;;;;;;;;;;12.40;99.90;;;;;;5100206;28;20232;-69
2023/04/29 07:15:20;;;;;;;;;;;12.40;99.90;;;;;;5102683;28;19935;-70
2023/04/29 07:17:47;;;;;;;;;;;12.40;99.90;;;;;;5102610;28;19927;-71
2023/04/29 07:20:14;;;;;;;;;;;12.30;99.90;;;;;;5103772;28;19955;-68
2023/04/29 07:22:42;;;;;;;;;;;12.20;99.90;;;;;;5102437;28;19980;-68
2023/04/29 07:25:09;;;;;;;;;;;12.20;99.90;;;;;;5103368;28;19988;-69
2023/04/29 07:27:36;;;;;;;;;;;12.30;99.90;;;;;;5102289;28;19991;-69
2023/04/29 07:30:03;;;;;;;;;;;12.40;99.90;;;;;;5103665;28;19963;-68
2023/04/29 07:32:30;;;;;;;;;;;12.40;99.90;;;;;;5102951;28;19994;-70
2023/04/29 07:34:57;;;;;;;;;;;12.50;99.90;;;;;;5102428;28;19920;-68
2023/04/29 07:37:23;;;;;;;;;;;12.50;99.90;;;;;;5102019;28;19920;-70
2023/04/29 07:39:51;;;;;;;;;;;12.60;99.90;;;;;;5102635;28;19920;-68
2023/04/29 07:42:18;;;;;;;;;;;12.70;99.90;;;;;;5102439;28;19939;-67
2023/04/29 07:44:45;;;;;;;;;;;12.70;99.90;;;;;;5102698;28;19963;-68
2023/04/29 07:47:11;;;;;;;;;;;12.80;99.90;;;;;;5102928;28;19942;-69
2023/04/29 07:49:38;;;;;;;;;;;12.80;99.90;;;;;;5103004;28;19960;-67
2023/04/29 07:52:06;;;;;;;;;;;12.80;99.90;;;;;;5103551;28;20000;-67
2023/04/29 07:54:33;;;;;;;;;;;12.90;99.90;;;;;;5102920;28;19958;-66
2023/04/29 07:57:03;;;;;;;;;;;13.00;99.90;;;;;;5103187;28;19924;-68
2023/04/29 07:59:30;;;;;;;;;;;13.00;99.90;;;;;;5102909;28;20116;-68
2023/04/29 08:01:56;;;;;;;;;;;13.00;99.90;;;;;;5103099;28;19983;-68
2023/04/29 08:04:23;;;;;;;;;;;13.10;99.90;;;;;;5102462;28;20115;-68
2023/04/29 08:06:50;;;;;;;;;;;13.00;99.90;;;;;;5102130;28;19969;-66
2023/04/29 08:09:16;;;;;;;;;;;13.00;99.90;;;;;;5102864;28;19979;-71
2023/04/29 08:11:43;;;;;;;;;;;13.00;99.90;;;;;;5102565;28;19965;-67
2023/04/29 08:14:11;;;;;;;;;;;13.00;99.90;;;;;;5102645;28;19920;-68
2023/04/29 08:16:38;;;;;;;;;;;13.00;99.90;;;;;;5102303;28;19926;-68
2023/04/29 08:19:04;;;;;;;;;;;13.00;99.90;;;;;;5106277;28;20224;-68
2023/04/29 08:21:32;;;;;;;;;;;13.00;99.90;;;;;;5106172;28;19951;-67
2023/04/29 08:23:59;;;;;;;;;;;13.10;99.90;;;;;;5107047;28;19927;-68
2023/04/29 08:26:25;;;;;;;;;;;13.10;99.90;;;;;;5105482;28;19987;-68
2023/04/29 08:28:52;;;;;;;;;;;13.10;99.90;;;;;;5104044;28;19921;-69
2023/04/29 08:31:20;;;;;;;;;;;13.10;99.90;;;;;;5106535;28;19956;-68
2023/04/29 08:33:47;;;;;;;;;;;13.10;99.90;;;;;;5106430;28;19920;-67
2023/04/29 08:36:14;;;;;;;;;;;13.10;99.90;;;;;;5105753;28;19942;-68
2023/04/29 08:38:40;;;;;;;;;;;13.10;99.90;;;;;;5106655;28;20021;-68
2023/04/29 08:41:07;;;;;;;;;;;13.10;99.90;;;;;;5106224;28;19984;-66
2023/04/29 08:43:35;;;;;;;;;;;13.10;99.90;;;;;;5106547;28;19920;-68
2023/04/29 08:46:02;;;;;;;;;;;13.10;99.90;;;;;;5105694;28;19928;-70
2023/04/29 08:48:30;;;;;;;;;;;13.10;99.90;;;;;;5106284;28;19920;-68
2023/04/29 08:50:58;;;;;;;;;;;13.10;99.90;;;;;;5106561;28;19957;-70
2023/04/29 08:53:25;;;;;;;;;;;13.10;99.90;;;;;;5105752;28;20269;-69
2023/04/29 08:55:52;;;;;;;;;;;13.10;99.90;;;;;;5126566;28;20381;-70
2023/04/29 08:58:18;;;;;;;;;;;13.10;99.90;;;;;;5110664;28;19983;-70
2023/04/29 09:00:45;;;;;;;;;;;13.10;99.90;;;;;;5106500;28;20172;-68
2023/04/29 09:03:14;;;;;;;;;;;13.20;99.90;;;;;;5105493;28;19942;-69
2023/04/29 09:05:43;;;;;;;;;;;13.20;99.90;;;;;;5105512;28;19920;-67
2023/04/29 09:08:11;;;;;;;;;;;13.20;99.90;;;;;;5105530;28;19920;-68
2023/04/29 09:10:38;;;;;;;;;;;13.30;99.90;;;;;;5105652;28;20112;-67
2023/04/29 09:13:05;;;;;;;;;;;13.30;99.90;;;;;;5105425;28;19920;-67
2023/04/29 09:15:35;;;;;;;;;;;13.40;99.90;;;;;;5105472;28;19928;-67
2023/04/29 09:18:02;;;;;;;;;;;13.50;99.90;;;;;;5105122;28;19920;-67
2023/04/29 09:20:29;;;;;;;;;;;13.50;99.90;;;;;;5105805;28;19982;-67
2023/04/29 09:22:58;;;;;;;;;;;13.50;99.90;;;;;;5105787;28;19995;-69
2023/04/29 09:25:26;;;;;;;;;;;13.50;99.90;;;;;;5105029;28;19948;-67
2023/04/29 09:27:52;;;;;;;;;;;13.50;99.90;;;;;;5101991;28;20330;-67
2023/04/29 09:30:20;;;;;;;;;;;13.50;99.90;;;;;;5104996;28;19958;-67
2023/04/29 09:32:47;;;;;;;;;;;13.50;99.90;;;;;;5105606;28;19966;-68
2023/04/29 09:35:21;;;;;;;;;;;13.50;99.90;;;;;;5105383;28;19942;-68
2023/04/29 09:37:48;;;;;;;;;;;13.50;99.90;;;;;;5104918;28;19987;-67
2023/04/29 09:40:30;;;;;;;;;;;13.50;99.90;;;;;;5105218;28;20310;-67
2023/04/29 09:42:58;;;;;;;;;;;13.50;99.90;;;;;;5105335;28;19991;-68
2023/04/29 09:45:35;;;;;;;;;;;13.50;99.90;;;;;;5104865;28;19995;-67
2023/04/29 09:48:02;;;;;;;;;;;13.50;99.90;;;;;;5097554;28;19942;-68
2023/04/29 09:50:29;;;;;;;;;;;13.50;99.90;;;;;;5105023;28;19965;-70
2023/04/29 09:52:56;;;;;;;;;;;13.50;99.90;;;;;;5105157;28;19920;-67
2023/04/29 09:55:23;;;;;;;;;;;13.60;99.90;;;;;;5105101;28;20124;-68
2023/04/29 09:57:49;;;;;;;;;;;13.70;99.90;;;;;;5104428;28;19986;-68
2023/04/29 10:00:17;;;;;;;;;;;13.80;99.90;;;;;;5105135;28;19928;-67
2023/04/29 10:02:46;;;;;;;;;;;13.90;99.90;;;;;;5098120;28;19920;-69
2023/04/29 10:05:13;;;;;;;;;;;13.80;99.90;;;;;;5104676;28;19924;-68
2023/04/29 10:07:40;;;;;;;;;;;14.00;99.90;;;;;;5104613;28;19920;-68
2023/04/29 10:10:10;;;;;;;;;;;14.00;99.90;;;;;;5104775;28;19989;-68
2023/04/29 10:12:37;;;;;;;;;;;14.10;99.90;;;;;;5104548;28;19920;-68
2023/04/29 10:15:06;;;;;;;;;;;14.00;99.90;;;;;;5104805;28;19924;-69
2023/04/29 10:17:36;;;;;;;;;;;14.00;99.90;;;;;;5104440;28;19920;-69
2023/04/29 10:20:05;;;;;;;;;;;14.10;99.90;;;;;;5104604;28;19920;-67
2023/04/29 10:22:34;;;;;;;;;;;14.00;99.90;;;;;;5104507;28;19920;-68
2023/04/29 10:25:01;;;;;;;;;;;14.10;99.90;;;;;;5104363;28;19924;-68
2023/04/29 10:27:29;;;;;;;;;;;14.10;99.90;;;;;;5103473;28;19920;-67
2023/04/29 10:29:56;;;;;;;;;;;14.10;99.90;;;;;;5104314;28;19920;-68
2023/04/29 10:32:23;;;;;;;;;;;14.10;99.90;;;;;;5104286;28;20196;-69
2023/04/29 10:34:52;;;;;;;;;;;14.10;99.90;;;;;;5103333;28;19924;-68
2023/04/29 10:37:19;;;;;;;;;;;14.10;99.90;;;;;;5102316;28;19926;-68
2023/04/29 10:39:49;;;;;;;;;;;14.10;99.90;;;;;;5103536;28;19920;-68
2023/04/29 10:42:21;;;;;;;;;;;14.10;99.90;;;;;;5103851;28;19946;-68
2023/04/29 10:45:06;;;;;;;;;;;14.10;99.90;;;;;;5101977;28;19947;-67
2023/04/29 10:47:33;;;;;;;;;;;14.10;99.90;;;;;;5103776;28;19951;-68
2023/04/29 10:50:04;;;;;;;;;;;14.10;99.90;;;;;;5104035;28;19987;-67
2023/04/29 10:52:30;;;;;;;;;;;14.10;99.90;;;;;;5104246;28;19924;-68
2023/04/29 10:55:02;;;;;;;;;;;14.20;99.90;;;;;;5102649;28;20136;-68
2023/04/29 10:57:29;;;;;;;;;;;14.30;99.90;;;;;;5095281;28;19934;-68
2023/04/29 10:59:56;;;;;;;;;;;14.40;99.90;;;;;;5097473;28;19983;-69
2023/04/29 11:02:23;;;;;;;;;;;14.50;99.90;;;;;;5100691;28;19983;-68
2023/04/29 11:05:11;;;;;;;;;;;14.50;99.90;;;;;;5091986;28;19921;-67
2023/04/29 11:07:37;;;;;;;;;;;14.40;99.90;;;;;;5094414;28;20127;-69
2023/04/29 11:10:05;;;;;;;;;;;14.40;99.90;;;;;;5102943;28;19983;-68
2023/04/29 11:12:33;;;;;;;;;;;14.50;99.90;;;;;;5101134;28;20381;-68
2023/04/29 11:15:03;;;;;;;;;;;14.50;99.90;;;;;;5103749;28;19928;-68
2023/04/29 11:17:35;;;;;;;;;;;14.60;99.90;;;;;;5102968;28;19920;-69
2023/04/29 11:20:01;;;;;;;;;;;14.60;99.90;;;;;;5103640;28;19926;-68
2023/04/29 11:22:31;;;;;;;;;;;14.70;99.90;;;;;;5103775;28;19920;-71
2023/04/29 11:24:59;;;;;;;;;;;14.80;99.90;;;;;;5103656;28;19983;-69
2023/04/29 11:27:29;;;;;;;;;;;14.80;99.90;;;;;;5102813;28;20015;-68
2023/04/29 11:29:58;;;;;;;;;;;14.90;99.90;;;;;;5103464;28;19920;-75
2023/04/29 11:32:25;;;;;;;;;;;15.00;99.90;;;;;;5103538;28;19965;-68
2023/04/29 11:34:52;;;;;;;;;;;15.20;99.90;;;;;;5103550;28;19921;-67
2023/04/29 11:37:19;;;;;;;;;;;15.20;99.90;;;;;;5102705;28;19924;-71
2023/04/29 11:39:48;;;;;;;;;;;15.20;99.90;;;;;;5100769;28;19928;-71
2023/04/29 11:42:19;;;;;;;;;;;15.20;99.90;;;;;;5103213;28;20208;-69
2023/04/29 11:44:45;;;;;;;;;;;15.30;99.90;;;;;;5100435;28;19920;-69
2023/04/29 11:47:12;;;;;;;;;;;15.40;99.90;;;;;;5102924;28;19987;-69
2023/04/29 11:49:39;;;;;;;;;;;15.40;99.90;;;;;;5102913;28;19920;-72
2023/04/29 11:52:07;;;;;;;;;;;15.50;99.90;;;;;;5103444;28;19951;-70
2023/04/29 11:54:34;;;;;;;;;;;15.50;99.90;;;;;;5107734;28;19920;-70
2023/04/29 11:57:03;;;;;;;;;;;15.40;99.90;;;;;;5107092;28;19920;-69
2023/04/29 11:59:31;;;;;;;;;;;15.40;99.90;;;;;;5106498;28;20162;-69
2023/04/29 12:01:57;;;;;;;;;;;15.30;99.90;;;;;;5107076;28;20208;-72
2023/04/29 12:04:24;;;;;;;;;;;15.20;99.90;;;;;;5107408;28;19987;-70
2023/04/29 12:06:51;;;;;;;;;;;15.20;99.90;;;;;;5106274;28;19927;-74
2023/04/29 12:09:18;;;;;;;;;;;15.20;99.90;;;;;;5107207;28;19920;-71
2023/04/29 12:11:45;;;;;;;;;;;15.10;99.90;;;;;;5107261;28;19994;-70
2023/04/29 12:14:14;;;;;;;;;;;15.10;99.90;;;;;;5107091;28;19986;-69
2023/04/29 12:16:40;;;;;;;;;;;15.00;99.90;;;;;;5106458;28;19920;-69
2023/04/29 12:19:09;;;;;;;;;;;14.90;99.90;;;;;;5106853;28;20256;-70
2023/04/29 12:21:35;;;;;;;;;;;14.80;99.90;;;;;;5107080;28;19943;-69
2023/04/29 12:24:02;;;;;;;;;;;14.70;99.90;;;;;;5106785;28;20251;-70
2023/04/29 12:26:30;;;;;;;;;;;14.60;99.90;;;;;;5105302;28;19920;-70
2023/04/29 12:28:57;;;;;;;;;;;14.50;99.90;;;;;;5106946;28;20089;-71
2023/04/29 12:31:31;;;;;;;;;;;14.50;99.90;;;;;;5106562;28;20147;-70
2023/04/29 12:33:58;;;;;;;;;;;14.50;99.90;;;;;;5106961;28;20000;-70
2023/04/29 12:36:24;;;;;;;;;;;14.40;99.90;;;;;;5106398;28;19991;-69
2023/04/29 12:38:53;;;;;;;;;;;14.40;99.90;;;;;;5102718;28;19991;-69
2023/04/29 12:41:20;;;;;;;;;;;14.30;99.90;;;;;;5106376;28;19942;-71
2023/04/29 12:43:50;;;;;;;;;;;14.20;99.90;;;;;;5095493;28;20285;-69
2023/04/29 12:46:18;;;;;;;;;;;14.20;99.90;;;;;;5105666;28;19921;-68
2023/04/29 12:48:47;;;;;;;;;;;14.10;99.90;;;;;;5105269;28;20234;-68
2023/04/29 12:51:13;;;;;;;;;;;14.10;99.90;;;;;;5106630;28;19927;-72
2023/04/29 12:53:40;;;;;;;;;;;14.10;99.90;;;;;;5106468;28;19920;-70
2023/04/29 12:56:07;;;;;;;;;;;14.10;99.90;;;;;;5106183;28;19920;-70
2023/04/29 12:58:34;;;;;;;;;;;14.10;99.90;;;;;;5106443;28;19992;-70
2023/04/29 13:01:00;;;;;;;;;;;14.10;99.90;;;;;;5106517;28;19924;-71
2023/04/29 13:03:27;;;;;;;;;;;14.10;99.90;;;;;;5105686;28;20223;-72
2023/04/29 13:05:56;;;;;;;;;;;14.20;99.90;;;;;;5105070;28;19920;-70
2023/04/29 13:08:22;;;;;;;;;;;14.20;99.90;;;;;;5106184;28;19920;-72
2023/04/29 13:10:49;;;;;;;;;;;14.20;99.90;;;;;;5106141;28;19936;-70
2023/04/29 13:13:16;;;;;;;;;;;14.10;99.90;;;;;;5105955;28;19983;-70
2023/04/29 13:15:43;;;;;;;;;;;14.00;99.90;;;;;;5090324;28;20250;-69
2023/04/29 13:18:09;;;;;;;;;;;14.10;99.90;;;;;;5090293;28;19992;-68
2023/04/29 13:20:36;;;;;;;;;;;14.00;99.90;;;;;;5084348;28;19984;-70
2023/04/29 13:23:04;;;;;;;;;;;14.00;99.90;;;;;;5094860;28;19920;-69
2023/04/29 13:25:30;;;;;;;;;;;14.00;99.90;;;;;;5104270;28;19994;-69
2023/04/29 13:27:57;;;;;;;;;;;14.00;99.90;;;;;;5103438;28;19987;-69
2023/04/29 13:30:24;;;;;;;;;;;13.90;99.90;;;;;;5105603;28;19962;-71
2023/04/29 13:32:50;;;;;;;;;;;13.90;99.90;;;;;;5105467;28;19962;-69
2023/04/29 13:35:17;;;;;;;;;;;13.90;99.90;;;;;;5105279;28;19921;-69
2023/04/29 13:37:44;;;;;;;;;;;13.90;99.90;;;;;;5104892;28;19991;-69
2023/04/29 13:40:12;;;;;;;;;;;13.90;99.90;;;;;;5105243;28;20314;-70
2023/04/29 13:42:39;;;;;;;;;;;13.90;99.90;;;;;;5105588;28;19920;-69
2023/04/29 13:45:06;;;;;;;;;;;13.90;99.90;;;;;;5105319;28;19920;-69
2023/04/29 13:47:32;;;;;;;;;;;13.90;99.90;;;;;;5104698;28;19927;-69
2023/04/29 13:49:59;;;;;;;;;;;14.00;99.90;;;;;;5105376;28;19927;-70
2023/04/29 13:52:25;;;;;;;;;;;14.00;99.90;;;;;;5105231;28;19974;-69
2023/04/29 13:54:52;;;;;;;;;;;14.00;99.90;;;;;;5105051;28;19952;-69
2023/04/29 13:57:20;;;;;;;;;;;14.10;99.90;;;;;;5104551;28;19969;-69
2023/04/29 13:59:47;;;;;;;;;;;14.10;99.90;;;;;;5105223;28;19983;-69
2023/04/29 14:02:13;;;;;;;;;;;14.20;99.90;;;;;;5105307;28;19920;-69
2023/04/29 14:04:40;;;;;;;;;;;14.20;99.90;;;;;;5104868;28;20107;-69
2023/04/29 14:07:07;;;;;;;;;;;14.20;99.90;;;;;;5104262;28;19959;-69
2023/04/29 14:09:33;;;;;;;;;;;14.20;99.90;;;;;;5113028;28;19995;-70
2023/04/29 14:12:00;;;;;;;;;;;14.20;99.90;;;;;;5104601;28;19983;-69
2023/04/29 14:14:28;;;;;;;;;;;14.20;99.90;;;;;;5104848;28;19958;-70
2023/04/29 14:16:54;;;;;;;;;;;14.20;99.90;;;;;;5095741;28;19927;-71